createdAt,value
2023-06-04T00:00:46.085Z,43.55
2023-06-04T00:01:46.092Z,43.57
2023-06-04T00:02:46.151Z,43.55
2023-06-04T00:03:46.378Z,43.59
2023-06-04T00:04:46.342Z,43.64
2023-06-04T00:05:46.161Z,43.59
2023-06-04T00:06:46.167Z,43.61
2023-06-04T00:07:46.191Z,43.59
2023-06-04T00:08:46.210Z,43.58
2023-06-04T00:09:46.245Z,43.61
2023-06-04T00:10:46.280Z,43.60
2023-06-04T00:11:46.309Z,43.62
2023-06-04T00:12:46.316Z,43.61
2023-06-04T00:13:46.332Z,43.62
2023-06-04T00:14:46.366Z,43.60
2023-06-04T00:15:46.407Z,43.61
2023-06-04T00:16:46.548Z,43.62
2023-06-04T00:17:46.510Z,43.63
2023-06-04T00:18:46.471Z,43.62
2023-06-04T00:19:46.496Z,43.62
2023-06-04T00:20:46.537Z,43.66
2023-06-04T00:21:46.573Z,43.64
2023-06-04T00:22:46.607Z,43.64
2023-06-04T00:23:46.643Z,43.61
2023-06-04T00:24:46.660Z,43.61
2023-06-04T00:25:46.669Z,43.62
2023-06-04T00:26:46.699Z,43.66
2023-06-04T00:27:46.720Z,43.63
2023-06-04T00:28:46.759Z,43.65
2023-06-04T00:29:46.776Z,43.69
2023-06-04T00:30:46.810Z,43.66
2023-06-04T00:31:46.922Z,43.71
2023-06-04T00:32:46.912Z,43.64
2023-06-04T00:33:46.898Z,43.61
2023-06-04T00:34:46.926Z,43.66
2023-06-04T00:35:46.937Z,43.66
2023-06-04T00:36:46.964Z,43.64
2023-06-04T00:37:46.993Z,43.62
2023-06-04T00:38:47.054Z,43.63
2023-06-04T00:39:47.045Z,43.64
2023-06-04T00:40:47.096Z,43.59
2023-06-04T00:41:47.115Z,43.66
2023-06-04T00:42:47.166Z,43.62
2023-06-04T00:43:47.179Z,43.62
2023-06-04T00:44:47.195Z,43.66
2023-06-04T00:45:47.259Z,43.68
2023-06-04T00:46:47.257Z,43.67
2023-06-04T00:47:47.352Z,43.66
2023-06-04T00:48:47.332Z,43.64
2023-06-04T00:49:47.358Z,43.60
2023-06-04T00:50:47.394Z,43.61
2023-06-04T00:51:47.426Z,43.64
2023-06-04T00:52:47.493Z,43.65
2023-06-04T00:53:47.519Z,43.64
2023-06-04T00:54:47.515Z,43.57
2023-06-04T00:55:47.585Z,43.58
2023-06-04T00:56:47.582Z,43.59
2023-06-04T00:57:47.618Z,43.59
2023-06-04T00:58:47.740Z,43.58
2023-06-04T00:59:47.696Z,43.60
2023-06-04T01:00:47.787Z,43.59
2023-06-04T01:01:47.875Z,43.55
2023-06-04T01:02:47.808Z,43.60
2023-06-04T01:03:47.874Z,43.60
2023-06-04T01:04:47.877Z,43.58
2023-06-04T01:05:47.906Z,43.58
2023-06-04T01:06:47.944Z,43.61
2023-06-04T01:07:47.985Z,43.58
2023-06-04T01:08:48.009Z,43.58
2023-06-04T01:09:48.062Z,43.58
2023-06-04T01:10:48.068Z,43.57
2023-06-04T01:11:48.109Z,43.58
2023-06-04T01:12:48.134Z,43.54
2023-06-04T01:13:48.566Z,43.53
2023-06-04T01:14:48.225Z,43.57
2023-06-04T01:15:48.228Z,43.57
2023-06-04T01:16:48.328Z,43.53
2023-06-04T01:17:48.471Z,43.61
2023-06-04T01:18:48.329Z,43.55
2023-06-04T01:19:48.349Z,43.55
2023-06-04T01:20:48.672Z,43.54
2023-06-04T01:21:48.411Z,43.52
2023-06-04T01:22:48.451Z,43.53
2023-06-04T01:23:48.526Z,43.53
2023-06-04T01:24:48.507Z,43.51
2023-06-04T01:25:48.548Z,43.56
2023-06-04T01:26:48.574Z,43.50
2023-06-04T01:27:48.615Z,43.53
2023-06-04T01:28:48.782Z,43.49
2023-06-04T01:29:48.668Z,43.50
2023-06-04T01:30:48.828Z,43.46
2023-06-04T01:31:48.805Z,43.49
2023-06-04T01:32:48.890Z,43.50
2023-06-04T01:33:48.827Z,43.48
2023-06-04T01:34:48.888Z,43.49
2023-06-04T01:35:48.887Z,43.43
2023-06-04T01:36:48.925Z,43.50
2023-06-04T01:37:48.961Z,43.48
2023-06-04T01:38:48.990Z,43.47
2023-06-04T01:39:49.040Z,43.44
2023-06-04T01:40:49.086Z,43.49
2023-06-04T01:41:49.091Z,43.50
2023-06-04T01:42:49.126Z,43.47
2023-06-04T01:43:49.162Z,43.49
2023-06-04T01:44:49.202Z,43.47
2023-06-04T01:45:49.244Z,43.47
2023-06-04T01:46:49.313Z,43.45
2023-06-04T01:47:49.332Z,43.42
2023-06-04T01:48:49.344Z,43.44
2023-06-04T01:49:49.372Z,43.49
2023-06-04T01:50:49.408Z,43.44
2023-06-04T01:51:49.445Z,43.42
2023-06-04T01:52:49.474Z,43.43
2023-06-04T01:53:49.520Z,43.40
2023-06-04T01:54:49.560Z,43.39
2023-06-04T01:55:49.601Z,43.43
2023-06-04T01:56:49.640Z,43.41
2023-06-04T01:57:49.682Z,43.43
2023-06-04T01:58:49.731Z,43.38
2023-06-04T01:59:49.765Z,43.39
2023-06-04T02:00:49.801Z,43.42
2023-06-04T02:01:49.900Z,43.45
2023-06-04T02:02:49.957Z,43.38
2023-06-04T02:03:49.965Z,43.39
2023-06-04T02:04:49.956Z,43.43
2023-06-04T02:05:49.994Z,43.42
2023-06-04T02:06:50.036Z,43.43
2023-06-04T02:07:50.074Z,43.37
2023-06-04T02:08:50.114Z,43.41
2023-06-04T02:09:50.159Z,43.37
2023-06-04T02:10:50.189Z,43.35
2023-06-04T02:11:50.217Z,43.37
2023-06-04T02:12:50.255Z,43.34
2023-06-04T02:13:50.281Z,43.33
2023-06-04T02:14:50.320Z,43.36
2023-06-04T02:15:50.362Z,43.37
2023-06-04T02:16:50.422Z,43.37
2023-06-04T02:17:50.427Z,43.37
2023-06-04T02:18:50.428Z,43.39
2023-06-04T02:19:50.469Z,43.35
2023-06-04T02:20:50.523Z,43.32
2023-06-04T02:21:50.528Z,43.33
2023-06-04T02:22:50.579Z,43.35
2023-06-04T02:23:50.653Z,43.33
2023-06-04T02:24:50.624Z,43.28
2023-06-04T02:25:50.996Z,43.33
2023-06-04T02:26:50.707Z,43.28
2023-06-04T02:27:50.705Z,43.27
2023-06-04T02:28:50.748Z,43.32
2023-06-04T02:29:50.762Z,43.23
2023-06-04T02:30:50.798Z,43.24
2023-06-04T02:31:50.868Z,43.25
2023-06-04T02:32:52.953Z,43.25
2023-06-04T02:33:50.858Z,43.22
2023-06-04T02:34:50.853Z,43.20
2023-06-04T02:35:50.846Z,43.20
2023-06-04T02:36:50.827Z,43.20
2023-06-04T02:37:50.902Z,43.18
2023-06-04T02:38:50.809Z,43.20
2023-06-04T02:39:50.786Z,43.16
2023-06-04T02:40:50.765Z,43.18
2023-06-04T02:41:50.754Z,43.12
2023-06-04T02:42:50.741Z,43.16
2023-06-04T02:43:50.703Z,43.14
2023-06-04T02:44:50.678Z,43.14
2023-06-04T02:45:50.813Z,43.12
2023-06-04T02:46:50.653Z,43.06
2023-06-04T02:47:50.660Z,43.08
2023-06-04T02:48:50.623Z,43.08
2023-06-04T02:49:50.608Z,43.07
2023-06-04T02:50:50.582Z,43.08
2023-06-04T02:51:50.562Z,43.04
2023-06-04T02:52:50.546Z,43.05
2023-06-04T02:53:50.544Z,43.06
2023-06-04T02:54:50.518Z,43.04
2023-06-04T02:55:50.505Z,43.07
2023-06-04T02:56:50.475Z,43.00
2023-06-04T02:57:50.456Z,43.03
2023-06-04T02:58:50.432Z,43.04
2023-06-04T02:59:50.423Z,43.04
2023-06-04T03:00:50.408Z,43.04
2023-06-04T03:01:50.415Z,43.04
2023-06-04T03:02:50.550Z,43.04
2023-06-04T03:03:50.527Z,43.01
2023-06-04T03:04:50.508Z,43.06
2023-06-04T03:05:50.559Z,43.01
2023-06-04T03:06:50.610Z,43.05
2023-06-04T03:07:50.647Z,43.00
2023-06-04T03:08:50.702Z,43.01
2023-06-04T03:09:50.765Z,43.00
2023-06-04T03:10:50.786Z,43.01
2023-06-04T03:11:50.971Z,42.96
2023-06-04T03:12:50.887Z,43.00
2023-06-04T03:13:50.990Z,42.95
2023-06-04T03:14:50.990Z,42.99
2023-06-04T03:15:51.050Z,42.98
2023-06-04T03:16:51.076Z,42.96
2023-06-04T03:17:51.188Z,42.97
2023-06-04T03:18:51.159Z,42.97
2023-06-04T03:19:51.200Z,42.95
2023-06-04T03:20:51.244Z,42.92
2023-06-04T03:21:51.270Z,42.96
2023-06-04T03:22:51.314Z,42.95
2023-06-04T03:23:51.379Z,42.95
2023-06-04T03:24:51.400Z,42.93
2023-06-04T03:25:51.442Z,42.91
2023-06-04T03:26:51.490Z,42.92
2023-06-04T03:27:51.534Z,42.95
2023-06-04T03:28:51.559Z,42.92
2023-06-04T03:29:51.602Z,42.88
2023-06-04T03:30:51.692Z,42.90
2023-06-04T03:31:51.687Z,42.91
2023-06-04T03:32:51.773Z,42.91
2023-06-04T03:33:51.760Z,42.86
2023-06-04T03:34:51.799Z,42.87
2023-06-04T03:35:51.854Z,42.89
2023-06-04T03:36:51.880Z,42.82
2023-06-04T03:37:51.960Z,42.88
2023-06-04T03:38:51.981Z,42.88
2023-06-04T03:39:51.993Z,42.86
2023-06-04T03:40:52.051Z,42.83
2023-06-04T03:41:52.074Z,42.84
2023-06-04T03:42:52.149Z,42.80
2023-06-04T03:43:52.155Z,42.86
2023-06-04T03:44:52.206Z,42.82
2023-06-04T03:45:52.239Z,42.81
2023-06-04T03:46:52.303Z,42.79
2023-06-04T03:47:52.427Z,42.80
2023-06-04T03:48:52.362Z,42.79
2023-06-04T03:49:52.405Z,42.80
2023-06-04T03:50:52.473Z,42.78
2023-06-04T03:51:52.476Z,42.78
2023-06-04T03:52:52.515Z,42.77
2023-06-04T03:53:52.555Z,42.79
2023-06-04T03:54:52.595Z,42.74
2023-06-04T03:55:52.643Z,42.69
2023-06-04T03:56:52.687Z,42.76
2023-06-04T03:57:52.725Z,42.75
2023-06-04T03:58:52.771Z,42.78
2023-06-04T03:59:52.819Z,42.69
2023-06-04T04:00:52.859Z,42.72
2023-06-04T04:01:52.956Z,42.75
2023-06-04T04:02:53.034Z,42.74
2023-06-04T04:03:53.138Z,42.69
2023-06-04T04:04:53.019Z,42.63
2023-06-04T04:05:53.063Z,42.68
2023-06-04T04:06:53.103Z,42.69
2023-06-04T04:07:53.145Z,42.65
2023-06-04T04:08:53.193Z,42.65
2023-06-04T04:09:53.235Z,42.66
2023-06-04T04:10:53.287Z,42.64
2023-06-04T04:11:53.316Z,42.68
2023-06-04T04:12:53.431Z,42.65
2023-06-04T04:13:53.456Z,42.61
2023-06-04T04:14:53.456Z,42.64
2023-06-04T04:15:53.519Z,42.63
2023-06-04T04:16:53.583Z,42.61
2023-06-04T04:17:53.660Z,42.62
2023-06-04T04:18:53.648Z,42.61
2023-06-04T04:19:53.693Z,42.64
2023-06-04T04:20:53.742Z,42.59
2023-06-04T04:21:53.800Z,42.64
2023-06-04T04:22:53.844Z,42.57
2023-06-04T04:23:53.907Z,42.56
2023-06-04T04:24:53.927Z,42.56
2023-06-04T04:25:53.967Z,42.57
2023-06-04T04:26:54.039Z,42.56
2023-06-04T04:27:54.057Z,42.56
2023-06-04T04:28:54.107Z,42.56
2023-06-04T04:29:54.154Z,42.54
2023-06-04T04:30:54.213Z,42.50
2023-06-04T04:31:54.243Z,42.55
2023-06-04T04:32:54.321Z,42.60
2023-06-04T04:33:54.329Z,42.55
2023-06-04T04:34:54.380Z,42.56
2023-06-04T04:35:54.410Z,42.51
2023-06-04T04:36:54.478Z,42.54
2023-06-04T04:37:54.509Z,42.55
2023-06-04T04:38:54.567Z,42.50
2023-06-04T04:39:54.598Z,42.50
2023-06-04T04:40:54.670Z,42.52
2023-06-04T04:41:54.708Z,42.49
2023-06-04T04:42:54.792Z,42.51
2023-06-04T04:43:54.809Z,42.51
2023-06-04T04:44:54.851Z,42.50
2023-06-04T04:45:54.900Z,42.51
2023-06-04T04:46:54.933Z,42.50
2023-06-04T04:47:55.050Z,42.47
2023-06-04T04:48:55.014Z,42.47
2023-06-04T04:49:55.067Z,42.49
2023-06-04T04:50:55.120Z,42.46
2023-06-04T04:51:55.154Z,42.46
2023-06-04T04:52:55.199Z,42.46
2023-06-04T04:53:55.242Z,42.48
2023-06-04T04:54:55.287Z,42.45
2023-06-04T04:55:55.346Z,42.46
2023-06-04T04:57:11.657Z,42.49
2023-06-04T04:57:55.359Z,42.44
2023-06-04T04:58:55.347Z,42.47
2023-06-04T04:59:55.344Z,42.49
2023-06-04T05:00:55.322Z,42.43
2023-06-04T05:01:55.360Z,42.44
2023-06-04T05:02:55.326Z,42.45
2023-06-04T05:03:55.356Z,42.40
2023-06-04T05:04:55.278Z,42.43
2023-06-04T05:05:55.273Z,42.41
2023-06-04T05:06:55.256Z,42.40
2023-06-04T05:07:55.244Z,42.39
2023-06-04T05:08:55.208Z,42.37
2023-06-04T05:09:55.187Z,42.39
2023-06-04T05:10:55.202Z,42.36
2023-06-04T05:11:55.171Z,42.37
2023-06-04T05:12:55.154Z,42.36
2023-06-04T05:13:55.142Z,42.35
2023-06-04T05:14:55.139Z,42.35
2023-06-04T05:15:55.126Z,42.33
2023-06-04T05:16:55.214Z,42.35
2023-06-04T05:17:55.172Z,42.35
2023-06-04T05:18:55.080Z,42.32
2023-06-04T05:19:55.062Z,42.33
2023-06-04T05:20:55.068Z,42.33
2023-06-04T05:21:55.042Z,42.33
2023-06-04T05:22:55.012Z,42.33
2023-06-04T05:23:55.876Z,42.33
2023-06-04T05:24:54.987Z,42.32
2023-06-04T05:25:55.040Z,42.35
2023-06-04T05:26:55.068Z,42.29
2023-06-04T05:27:55.116Z,42.31
2023-06-04T05:28:57.323Z,42.28
2023-06-04T05:29:55.148Z,42.31
2023-06-04T05:30:55.133Z,42.26
2023-06-04T05:31:55.190Z,42.31
2023-06-04T05:32:55.187Z,42.27
2023-06-04T05:33:55.115Z,42.26
2023-06-04T05:34:55.119Z,42.25
2023-06-04T05:35:55.119Z,42.23
2023-06-04T05:36:55.083Z,42.28
2023-06-04T05:37:55.282Z,42.23
2023-06-04T05:38:55.061Z,42.24
2023-06-04T05:39:55.050Z,42.21
2023-06-04T05:40:55.027Z,42.24
2023-06-04T05:41:55.017Z,42.22
2023-06-04T05:42:55.004Z,42.21
2023-06-04T05:43:55.027Z,42.24
2023-06-04T05:44:55.080Z,42.22
2023-06-04T05:45:55.204Z,42.21
2023-06-04T05:46:55.162Z,42.19
2023-06-04T05:47:55.309Z,42.21
2023-06-04T05:48:55.241Z,42.14
2023-06-04T05:49:55.274Z,42.18
2023-06-04T05:50:55.330Z,42.17
2023-06-04T05:51:55.353Z,42.11
2023-06-04T05:52:55.394Z,42.14
2023-06-04T05:53:55.464Z,42.11
2023-06-04T05:54:55.466Z,42.07
2023-06-04T05:55:55.526Z,42.05
2023-06-04T05:56:55.544Z,42.03
2023-06-04T05:57:55.586Z,42.00
2023-06-04T05:58:55.639Z,41.95
2023-06-04T05:59:55.665Z,41.97
2023-06-04T06:00:55.716Z,41.93
2023-06-04T06:01:55.801Z,41.88
2023-06-04T06:02:55.848Z,41.89
2023-06-04T06:03:55.889Z,41.91
2023-06-04T06:04:55.849Z,41.90
2023-06-04T06:05:55.886Z,41.83
2023-06-04T06:06:55.918Z,41.80
2023-06-04T06:07:55.986Z,41.80
2023-06-04T06:08:55.988Z,41.75
2023-06-04T06:09:56.029Z,41.78
2023-06-04T06:10:56.057Z,41.80
2023-06-04T06:11:56.099Z,41.83
2023-06-04T06:12:56.147Z,41.78
2023-06-04T06:13:56.167Z,41.79
2023-06-04T06:14:56.204Z,41.81
2023-06-04T06:15:56.266Z,41.79
2023-06-04T06:16:56.295Z,41.76
2023-06-04T06:17:56.425Z,41.72
2023-06-04T06:18:56.345Z,41.72
2023-06-04T06:19:56.390Z,41.73
2023-06-04T06:20:56.428Z,41.74
2023-06-04T06:21:56.477Z,41.73
2023-06-04T06:22:56.493Z,41.76
2023-06-04T06:23:56.617Z,41.67
2023-06-04T06:24:56.554Z,41.70
2023-06-04T06:25:56.592Z,41.67
2023-06-04T06:26:56.606Z,41.67
2023-06-04T06:27:56.649Z,41.69
2023-06-04T06:28:56.684Z,41.69
2023-06-04T06:29:56.732Z,41.68
2023-06-04T06:30:56.797Z,41.69
2023-06-04T06:31:56.786Z,41.66
2023-06-04T06:32:57.123Z,41.65
2023-06-04T06:33:56.868Z,41.68
2023-06-04T06:34:56.880Z,41.66
2023-06-04T06:35:56.915Z,41.67
2023-06-04T06:36:56.941Z,41.63
2023-06-04T06:37:56.975Z,41.59
2023-06-04T06:38:57.003Z,41.60
2023-06-04T06:39:57.071Z,41.56
2023-06-04T06:40:57.071Z,41.59
2023-06-04T06:41:57.110Z,41.54
2023-06-04T06:42:57.139Z,41.59
2023-06-04T06:43:57.170Z,41.54
2023-06-04T06:44:57.203Z,41.50
2023-06-04T06:45:57.242Z,41.52
2023-06-04T06:46:57.295Z,41.50
2023-06-04T06:47:57.353Z,41.47
2023-06-04T06:48:57.330Z,41.49
2023-06-04T06:49:57.373Z,41.44
2023-06-04T06:50:57.380Z,41.42
2023-06-04T06:51:57.423Z,41.48
2023-06-04T06:52:57.463Z,41.42
2023-06-04T06:53:57.497Z,41.43
2023-06-04T06:54:57.503Z,41.48
2023-06-04T06:55:57.528Z,41.41
2023-06-04T06:56:57.555Z,41.44
2023-06-04T06:57:57.808Z,41.41
2023-06-04T06:58:57.606Z,41.39
2023-06-04T06:59:57.648Z,41.41
2023-06-04T07:00:57.857Z,41.34
2023-06-04T07:01:57.720Z,41.32
2023-06-04T07:02:57.798Z,41.37
2023-06-04T07:03:57.745Z,41.31
2023-06-04T07:04:57.766Z,41.31
2023-06-04T07:05:57.791Z,41.28
2023-06-04T07:06:57.815Z,41.32
2023-06-04T07:07:57.834Z,41.27
2023-06-04T07:08:57.857Z,41.24
2023-06-04T07:09:57.880Z,41.27
2023-06-04T07:10:57.912Z,41.23
2023-06-04T07:11:57.920Z,41.23
2023-06-04T07:12:57.943Z,41.20
2023-06-04T07:13:57.963Z,41.17
2023-06-04T07:14:57.994Z,41.18
2023-06-04T07:15:58.006Z,41.15
2023-06-04T07:16:58.136Z,41.17
2023-06-04T07:17:58.133Z,41.15
2023-06-04T07:18:58.070Z,41.15
2023-06-04T07:19:58.107Z,41.12
2023-06-04T07:20:58.102Z,41.13
2023-06-04T07:21:58.125Z,41.10
2023-06-04T07:22:58.139Z,41.10
2023-06-04T07:23:58.201Z,41.08
2023-06-04T07:24:58.205Z,41.07
2023-06-04T07:25:58.200Z,41.04
2023-06-04T07:26:58.223Z,41.07
2023-06-04T07:27:58.226Z,41.07
2023-06-04T07:28:58.251Z,41.05
2023-06-04T07:29:58.261Z,41.04
2023-06-04T07:30:58.278Z,41.01
2023-06-04T07:31:58.328Z,41.03
2023-06-04T07:32:58.341Z,41.04
2023-06-04T07:33:58.424Z,41.05
2023-06-04T07:34:58.345Z,40.99
2023-06-04T07:35:58.367Z,40.96
2023-06-04T07:36:58.377Z,41.00
2023-06-04T07:37:58.408Z,40.99
2023-06-04T07:38:58.408Z,40.98
2023-06-04T07:39:58.433Z,40.97
2023-06-04T07:40:58.437Z,40.95
2023-06-04T07:41:58.468Z,40.95
2023-06-04T07:42:58.469Z,40.94
2023-06-04T07:43:58.493Z,40.86
2023-06-04T07:44:58.514Z,40.85
2023-06-04T07:45:58.536Z,40.86
2023-06-04T07:46:58.539Z,40.85
2023-06-04T07:47:58.661Z,40.87
2023-06-04T07:48:58.578Z,40.84
2023-06-04T07:50:03.258Z,40.80
2023-06-04T07:50:58.558Z,40.75
2023-06-04T07:51:58.540Z,40.74
2023-06-04T07:52:58.515Z,40.72
2023-06-04T07:53:58.512Z,40.67
2023-06-04T07:55:00.333Z,40.67
2023-06-04T07:55:58.457Z,40.65
2023-06-04T07:56:58.445Z,40.61
2023-06-04T07:57:58.430Z,40.65
2023-06-04T07:58:58.412Z,40.63
2023-06-04T07:59:58.404Z,40.62
2023-06-04T08:00:58.385Z,40.57
2023-06-04T08:01:58.374Z,40.55
2023-06-04T08:02:58.405Z,40.60
2023-06-04T08:03:58.459Z,40.54
2023-06-04T08:04:58.386Z,40.55
2023-06-04T08:05:58.318Z,40.53
2023-06-04T08:06:58.310Z,40.53
2023-06-04T08:07:58.321Z,40.44
2023-06-04T08:08:58.283Z,40.41
2023-06-04T08:09:58.266Z,40.42
2023-06-04T08:10:58.245Z,40.44
2023-06-04T08:11:58.232Z,40.44
2023-06-04T08:12:58.232Z,40.44
2023-06-04T08:13:58.222Z,40.47
2023-06-04T08:14:58.210Z,40.42
2023-06-04T08:15:58.344Z,40.36
2023-06-04T08:16:58.195Z,40.44
2023-06-04T08:17:58.253Z,40.30
2023-06-04T08:18:58.171Z,40.28
2023-06-04T08:19:58.152Z,40.26
2023-06-04T08:20:58.150Z,40.23
2023-06-04T08:21:58.142Z,40.24
2023-06-04T08:22:58.129Z,40.21
2023-06-04T08:23:58.161Z,40.16
2023-06-04T08:24:58.101Z,40.18
2023-06-04T08:25:58.089Z,40.20
2023-06-04T08:26:58.090Z,40.16
2023-06-04T08:27:58.119Z,40.19
2023-06-04T08:28:58.201Z,40.12
2023-06-04T08:29:58.153Z,40.15
2023-06-04T08:30:58.168Z,40.10
2023-06-04T08:31:58.370Z,40.09
2023-06-04T08:32:58.263Z,40.03
2023-06-04T08:33:58.232Z,40.05
2023-06-04T08:34:58.223Z,39.98
2023-06-04T08:35:58.240Z,39.95
2023-06-04T08:36:58.257Z,39.97
2023-06-04T08:37:58.254Z,39.90
2023-06-04T08:38:58.265Z,39.91
2023-06-04T08:39:58.285Z,39.87
2023-06-04T08:40:58.306Z,39.89
2023-06-04T08:41:58.321Z,39.86
2023-06-04T08:42:58.331Z,39.79
2023-06-04T08:44:00.887Z,39.81
2023-06-04T08:44:58.327Z,39.78
2023-06-04T08:45:58.323Z,39.73
2023-06-04T08:46:58.298Z,39.73
2023-06-04T08:47:58.317Z,39.77
2023-06-04T08:48:59.749Z,39.75
2023-06-04T08:49:58.240Z,39.71
2023-06-04T08:50:58.213Z,39.73
2023-06-04T08:51:58.199Z,39.72
2023-06-04T08:52:58.211Z,39.73
2023-06-04T08:53:58.162Z,39.78
2023-06-04T08:54:58.160Z,39.79
2023-06-04T08:55:58.139Z,39.80
2023-06-04T08:56:58.147Z,39.69
2023-06-04T08:57:58.113Z,39.72
2023-06-04T08:58:58.108Z,39.74
2023-06-04T08:59:58.075Z,39.72
2023-06-04T09:00:58.110Z,39.67
2023-06-04T09:01:58.046Z,39.72
2023-06-04T09:02:58.064Z,39.67
2023-06-04T09:03:58.031Z,39.74
2023-06-04T09:04:57.982Z,39.71
2023-06-04T09:05:57.958Z,39.72
2023-06-04T09:06:57.926Z,39.74
2023-06-04T09:07:57.903Z,39.74
2023-06-04T09:08:58.552Z,39.63
2023-06-04T09:10:12.112Z,39.69
2023-06-04T09:10:57.822Z,39.67
2023-06-04T09:11:57.805Z,39.74
2023-06-04T09:12:57.797Z,39.74
2023-06-04T09:13:57.784Z,39.78
2023-06-04T09:14:57.767Z,39.76
2023-06-04T09:15:57.790Z,39.77
2023-06-04T09:16:57.739Z,39.68
2023-06-04T09:17:57.740Z,39.73
2023-06-04T09:18:57.716Z,39.74
2023-06-04T09:19:57.690Z,39.69
2023-06-04T09:20:57.659Z,39.68
2023-06-04T09:21:57.680Z,39.82
2023-06-04T09:22:57.637Z,39.82
2023-06-04T09:23:57.648Z,39.85
2023-06-04T09:24:57.612Z,39.87
2023-06-04T09:25:57.595Z,39.87
2023-06-04T09:26:57.573Z,40.02
2023-06-04T09:27:57.550Z,39.94
2023-06-04T09:28:57.544Z,39.92
2023-06-04T09:29:57.539Z,39.83
2023-06-04T09:30:57.572Z,39.84
2023-06-04T09:31:57.488Z,39.98
2023-06-04T09:32:57.460Z,39.95
2023-06-04T09:33:57.420Z,39.90
2023-06-04T09:34:57.394Z,39.91
2023-06-04T09:35:57.415Z,39.96
2023-06-04T09:36:57.337Z,40.01
2023-06-04T09:37:57.408Z,40.00
2023-06-04T09:38:57.303Z,39.95
2023-06-04T09:39:57.274Z,39.90
2023-06-04T09:40:57.288Z,39.80
2023-06-04T09:41:57.231Z,39.81
2023-06-04T09:42:57.215Z,39.84
2023-06-04T09:43:57.197Z,39.76
2023-06-04T09:44:57.186Z,39.76
2023-06-04T09:45:57.148Z,39.72
2023-06-04T09:46:57.214Z,39.70
2023-06-04T09:47:57.154Z,39.88
2023-06-04T09:48:57.082Z,39.75
2023-06-04T09:49:57.065Z,39.65
2023-06-04T09:50:57.045Z,39.66
2023-06-04T09:51:57.024Z,39.65
2023-06-04T09:52:56.981Z,39.65
2023-06-04T09:53:56.953Z,39.59
2023-06-04T09:54:56.929Z,39.58
2023-06-04T09:55:56.907Z,39.54
2023-06-04T09:56:56.880Z,39.53
2023-06-04T09:57:56.864Z,39.53
2023-06-04T09:58:56.848Z,39.58
2023-06-04T09:59:56.826Z,39.65
2023-06-04T10:00:56.812Z,39.58
2023-06-04T10:01:56.834Z,39.54
2023-06-04T10:02:56.850Z,39.40
2023-06-04T10:03:56.876Z,39.41
2023-06-04T10:04:56.734Z,39.41
2023-06-04T10:05:56.695Z,39.38
2023-06-04T10:06:56.675Z,39.38
2023-06-04T10:07:56.656Z,39.34
2023-06-04T10:08:56.632Z,39.38
2023-06-04T10:09:56.640Z,39.35
2023-06-04T10:10:56.579Z,39.38
2023-06-04T10:11:56.564Z,39.38
2023-06-04T10:12:56.548Z,39.39
2023-06-04T10:13:56.528Z,39.39
2023-06-04T10:14:56.791Z,39.39
2023-06-04T10:15:56.488Z,39.33
2023-06-04T10:16:56.520Z,39.32
2023-06-04T10:17:56.623Z,39.32
2023-06-04T10:18:56.418Z,39.27
2023-06-04T10:19:56.448Z,39.36
2023-06-04T10:20:56.388Z,39.36
2023-06-04T10:21:56.342Z,39.33
2023-06-04T10:22:56.327Z,39.31
2023-06-04T10:23:56.329Z,39.28
2023-06-04T10:24:56.323Z,39.33
2023-06-04T10:25:56.381Z,39.32
2023-06-04T10:26:56.439Z,39.33
2023-06-04T10:27:56.489Z,39.38
2023-06-04T10:28:56.513Z,39.31
2023-06-04T10:29:56.566Z,39.31
2023-06-04T10:30:56.611Z,39.32
2023-06-04T10:31:56.761Z,39.29
2023-06-04T10:32:56.726Z,39.35
2023-06-04T10:33:56.746Z,39.32
2023-06-04T10:34:56.785Z,39.28
2023-06-04T10:35:56.862Z,39.27
2023-06-04T10:36:56.906Z,39.30
2023-06-04T10:37:56.942Z,39.30
2023-06-04T10:38:57.070Z,39.30
2023-06-04T10:39:57.025Z,39.28
2023-06-04T10:40:57.066Z,39.32
2023-06-04T10:41:57.148Z,39.33
2023-06-04T10:42:57.161Z,39.31
2023-06-04T10:43:57.205Z,39.36
2023-06-04T10:44:58.288Z,39.31
2023-06-04T10:45:57.304Z,39.31
2023-06-04T10:46:57.337Z,39.35
2023-06-04T10:47:57.427Z,39.34
2023-06-04T10:48:57.397Z,39.35
2023-06-04T10:49:57.457Z,39.30
2023-06-04T10:50:57.507Z,39.28
2023-06-04T10:51:57.564Z,39.28
2023-06-04T10:52:57.605Z,39.28
2023-06-04T10:53:57.638Z,39.31
2023-06-04T10:54:57.679Z,39.30
2023-06-04T10:55:57.717Z,39.27
2023-06-04T10:56:57.753Z,39.33
2023-06-04T10:57:57.791Z,39.34
2023-06-04T10:58:57.855Z,39.30
2023-06-04T10:59:57.893Z,39.27
2023-06-04T11:00:57.946Z,39.32
2023-06-04T11:01:58.076Z,39.30
2023-06-04T11:02:58.144Z,39.27
2023-06-04T11:03:58.135Z,39.28
2023-06-04T11:04:58.117Z,39.30
2023-06-04T11:05:58.161Z,39.26
2023-06-04T11:06:58.178Z,39.29
2023-06-04T11:07:58.212Z,39.26
2023-06-04T11:08:58.250Z,39.28
2023-06-04T11:09:58.298Z,39.28
2023-06-04T11:10:58.330Z,39.28
2023-06-04T11:11:58.471Z,39.23
2023-06-04T11:12:58.431Z,39.26
2023-06-04T11:13:58.481Z,39.23
2023-06-04T11:14:58.512Z,39.24
2023-06-04T11:15:58.626Z,39.22
2023-06-04T11:16:58.599Z,39.21
2023-06-04T11:17:58.697Z,39.22
2023-06-04T11:18:58.684Z,39.20
2023-06-04T11:19:58.751Z,39.20
2023-06-04T11:20:58.789Z,39.22
2023-06-04T11:21:58.834Z,39.22
2023-06-04T11:22:58.877Z,39.19
2023-06-04T11:23:58.952Z,39.15
2023-06-04T11:24:58.960Z,39.18
2023-06-04T11:25:59.013Z,39.14
2023-06-04T11:27:58.102Z,39.14
2023-06-04T11:28:59.152Z,39.11
2023-06-04T11:29:59.190Z,39.14
2023-06-04T11:30:59.238Z,39.13
2023-06-04T11:31:59.305Z,39.11
2023-06-04T11:32:59.312Z,39.11
2023-06-04T11:33:59.345Z,39.09
2023-06-04T11:34:59.395Z,39.10
2023-06-04T11:35:59.442Z,39.07
2023-06-04T11:36:59.487Z,39.09
2023-06-04T11:37:59.528Z,39.12
2023-06-04T11:38:59.565Z,39.04
2023-06-04T11:39:59.598Z,39.07
2023-06-04T11:40:59.632Z,39.08
2023-06-04T11:41:59.658Z,39.02
2023-06-04T11:42:59.700Z,39.07
2023-06-04T11:43:59.746Z,39.06
2023-06-04T11:44:59.864Z,39.08
2023-06-04T11:45:59.824Z,39.08
2023-06-04T11:46:59.865Z,39.03
2023-06-04T11:47:59.992Z,39.05
2023-06-04T11:49:00.073Z,39.03
2023-06-04T11:50:00.057Z,39.11
2023-06-04T11:51:00.050Z,39.13
2023-06-04T11:52:00.100Z,39.12
2023-06-04T11:53:00.108Z,39.07
2023-06-04T11:54:00.151Z,39.11
2023-06-04T11:55:00.217Z,39.17
2023-06-04T11:56:00.251Z,39.11
2023-06-04T11:57:00.312Z,39.17
2023-06-04T11:58:00.355Z,39.18
2023-06-04T11:59:00.370Z,39.16
2023-06-04T12:00:00.436Z,39.16
2023-06-04T12:01:00.458Z,39.16
2023-06-04T12:02:00.576Z,39.16
2023-06-04T12:03:00.768Z,39.14
2023-06-04T12:04:00.606Z,39.18
2023-06-04T12:05:00.651Z,39.12
2023-06-04T12:06:00.752Z,39.19
2023-06-04T12:07:00.721Z,39.17
2023-06-04T12:08:00.781Z,39.16
2023-06-04T12:09:00.808Z,39.16
2023-06-04T12:10:00.848Z,39.16
2023-06-04T12:11:00.893Z,39.17
2023-06-04T12:12:00.948Z,39.17
2023-06-04T12:13:00.969Z,39.11
2023-06-04T12:14:01.011Z,39.15
2023-06-04T12:15:01.110Z,39.13
2023-06-04T12:16:01.077Z,39.13
2023-06-04T12:17:01.223Z,39.17
2023-06-04T12:18:01.244Z,39.11
2023-06-04T12:19:01.219Z,39.12
2023-06-04T12:20:01.264Z,39.13
2023-06-04T12:21:01.302Z,39.08
2023-06-04T12:22:01.336Z,39.09
2023-06-04T12:23:01.375Z,39.07
2023-06-04T12:24:01.521Z,39.06
2023-06-04T12:25:01.446Z,39.05
2023-06-04T12:26:01.486Z,39.04
2023-06-04T12:27:01.529Z,39.03
2023-06-04T12:28:01.593Z,39.07
2023-06-04T12:29:01.604Z,39.05
2023-06-04T12:30:01.631Z,38.98
2023-06-04T12:31:01.697Z,39.01
2023-06-04T12:32:01.705Z,38.99
2023-06-04T12:33:01.758Z,39.00
2023-06-04T12:34:01.782Z,38.97
2023-06-04T12:35:01.818Z,38.99
2023-06-04T12:36:01.921Z,38.94
2023-06-04T12:37:01.898Z,39.01
2023-06-04T12:38:01.946Z,38.96
2023-06-04T12:39:01.984Z,39.01
2023-06-04T12:40:02.035Z,38.93
2023-06-04T12:41:02.077Z,39.01
2023-06-04T12:42:02.132Z,38.95
2023-06-04T12:43:02.168Z,38.94
2023-06-04T12:44:02.189Z,38.96
2023-06-04T12:45:02.242Z,38.94
2023-06-04T12:46:02.276Z,38.92
2023-06-04T12:47:02.513Z,38.95
2023-06-04T12:48:02.394Z,38.94
2023-06-04T12:49:02.403Z,38.92
2023-06-04T12:50:02.426Z,38.91
2023-06-04T12:51:02.472Z,38.90
2023-06-04T12:52:02.504Z,38.91
2023-06-04T12:53:02.541Z,38.94
2023-06-04T12:54:02.583Z,38.93